createdAt,value
2023-03-13T14:37:35.424Z,8.40
2023-03-13T14:38:37.748Z,5.70
2023-03-13T14:39:45.184Z,8.50
2023-03-13T14:41:50.407Z,10.50
2023-03-13T14:44:29.575Z,11.80
2023-03-13T14:45:34.817Z,10.40
2023-03-13T14:46:39.782Z,10.60
2023-03-13T14:47:42.371Z,10.60
2023-03-13T14:48:44.740Z,9.50
2023-03-13T14:49:58.701Z,9.50
2023-03-13T14:51:14.736Z,10.10
2023-03-13T14:52:18.086Z,7.60
2023-03-13T14:53:21.836Z,10.20
2023-03-13T14:54:27.308Z,9.00
2023-03-13T14:55:32.149Z,9.00
2023-03-13T14:56:39.421Z,8.70
2023-03-13T14:57:54.716Z,9.90
2023-03-13T14:59:09.383Z,9.10
2023-03-13T15:00:33.680Z,8.80
2023-03-13T15:01:36.025Z,7.40
2023-03-13T15:02:38.018Z,7.70
2023-03-13T15:03:45.275Z,8.22
2023-03-13T15:04:49.478Z,7.30
2023-03-13T15:07:42.089Z,9.80
2023-03-13T15:08:47.747Z,7.10
2023-03-13T15:09:50.410Z,6.40
2023-03-13T15:10:53.121Z,7.45
2023-03-13T15:12:01.103Z,8.90
2023-03-13T15:13:29.678Z,7.40
2023-03-13T15:14:40.713Z,7.00
2023-03-13T15:15:42.800Z,8.00
2023-03-13T15:16:44.932Z,5.40
2023-03-13T15:17:47.517Z,7.70
2023-03-13T15:18:51.101Z,7.30
2023-03-13T15:19:57.524Z,6.20
2023-03-13T15:21:18.655Z,7.30
2023-03-13T15:22:36.327Z,5.90
2023-03-13T15:25:05.578Z,7.90
2023-03-13T15:25:58.106Z,8.20
2023-03-13T15:27:01.106Z,6.30
2023-03-13T15:28:06.381Z,6.60
2023-03-13T15:30:21.670Z,6.60
2023-03-13T15:31:28.916Z,5.50
2023-03-13T15:33:23.720Z,6.30
2023-03-13T15:34:26.676Z,6.20
2023-03-13T15:35:31.428Z,6.20
2023-03-13T15:37:45.241Z,7.10
2023-03-13T15:39:51.104Z,6.20
2023-03-13T15:40:54.465Z,5.50
2023-03-13T15:41:57.673Z,4.50
2023-03-13T15:42:59.933Z,5.70
2023-03-13T15:44:01.954Z,5.60
2023-03-13T15:45:06.667Z,6.10
2023-03-13T15:47:22.516Z,6.40
2023-03-13T15:48:27.399Z,6.00
2023-03-13T15:49:30.588Z,5.60
2023-03-13T15:50:35.109Z,6.50
2023-03-13T15:51:37.197Z,5.80
2023-03-13T15:52:40.119Z,6.90
2023-03-13T15:53:42.908Z,8.09
2023-03-13T15:54:46.651Z,7.45
2023-03-13T15:55:51.473Z,6.40
2023-03-13T15:58:02.915Z,8.70
2023-03-13T15:59:13.114Z,9.00
2023-03-13T16:01:48.541Z,8.70
2023-03-13T16:02:51.205Z,7.70
2023-03-13T16:04:35.538Z,8.30
2023-03-13T16:05:41.422Z,6.80
2023-03-13T16:06:43.603Z,6.80
2023-03-13T16:07:49.270Z,8.10
2023-03-13T16:09:30.569Z,4.80
2023-03-13T16:10:33.753Z,6.70
2023-03-13T16:11:37.093Z,7.10
2023-03-13T16:13:04.251Z,7.30
2023-03-13T16:14:06.318Z,6.70
2023-03-13T16:15:10.261Z,6.80
2023-03-13T16:16:25.724Z,5.60
2023-03-13T16:17:27.853Z,6.70
2023-03-13T16:18:29.801Z,7.20
2023-03-13T16:19:31.830Z,7.22
2023-03-13T16:20:34.381Z,6.80
2023-03-13T16:21:37.659Z,6.70
2023-03-13T16:22:41.340Z,7.20
2023-03-13T16:23:43.645Z,6.60
2023-03-13T16:24:46.244Z,6.00
2023-03-13T16:25:48.981Z,6.10
2023-03-13T16:26:52.329Z,7.18
2023-03-13T16:29:04.174Z,9.30
2023-03-13T16:31:30.015Z,8.50
2023-03-13T16:32:33.027Z,7.70
2023-03-13T16:33:36.061Z,7.80
2023-03-13T16:34:38.110Z,8.80
2023-03-13T16:35:42.639Z,9.00
2023-03-13T16:36:47.373Z,7.70
2023-03-13T16:37:52.251Z,9.10
2023-03-13T16:38:58.010Z,7.10
2023-03-13T16:40:05.398Z,7.00
2023-03-13T16:42:28.470Z,9.30
2023-03-13T16:43:30.900Z,8.80
2023-03-13T16:44:37.665Z,8.60
2023-03-13T16:45:42.821Z,8.20
2023-03-13T16:47:02.755Z,7.50
2023-03-13T16:47:52.468Z,8.10
2023-03-13T16:48:54.673Z,8.10
2023-03-13T16:49:56.710Z,8.40
2023-03-13T16:50:59.117Z,7.90
2023-03-13T16:52:01.671Z,8.30
2023-03-13T16:53:04.205Z,7.90
2023-03-13T16:54:07.613Z,8.60
2023-03-13T16:55:10.060Z,7.00
2023-03-13T16:56:19.288Z,8.10
2023-03-13T16:57:25.729Z,8.20
2023-03-13T16:58:28.850Z,7.80
2023-03-13T16:59:31.572Z,8.50
2023-03-13T17:00:34.955Z,8.91
2023-03-13T17:01:37.476Z,7.70
2023-03-13T17:02:40.564Z,8.10
2023-03-13T17:03:43.894Z,8.80
2023-03-13T17:04:47.911Z,8.50
2023-03-13T17:05:52.911Z,9.20
2023-03-13T17:06:56.122Z,6.90
2023-03-13T17:07:58.238Z,8.80
2023-03-13T17:09:00.697Z,8.10
2023-03-13T17:10:06.867Z,9.60
2023-03-13T17:11:11.168Z,9.30
2023-03-13T17:12:13.722Z,8.50
2023-03-13T17:13:15.947Z,10.20
2023-03-13T17:14:19.385Z,9.60
2023-03-13T17:15:23.952Z,8.00
2023-03-13T17:16:31.832Z,8.80
2023-03-13T17:17:34.944Z,9.20
2023-03-13T17:18:38.125Z,8.50
2023-03-13T17:19:40.971Z,9.20
2023-03-13T17:20:43.613Z,10.10
2023-03-13T17:21:45.680Z,8.30
2023-03-13T17:22:50.525Z,10.70
2023-03-13T17:23:53.603Z,10.40
2023-03-13T17:24:56.816Z,9.18
2023-03-13T17:25:58.833Z,9.50
2023-03-13T17:27:02.070Z,10.50
2023-03-13T17:28:04.288Z,9.80
2023-03-13T17:29:07.949Z,10.40
2023-03-13T17:30:25.681Z,9.70
2023-03-13T17:31:29.249Z,9.10
2023-03-13T17:32:32.651Z,10.00
2023-03-13T17:33:37.862Z,9.90
2023-03-13T17:34:41.024Z,9.00
2023-03-13T17:35:43.346Z,9.50
2023-03-13T17:36:45.498Z,10.40
2023-03-13T17:37:47.903Z,9.10
2023-03-13T17:38:52.176Z,9.90
2023-03-13T17:39:56.360Z,10.40
2023-03-13T17:41:04.634Z,8.00
2023-03-13T17:42:07.837Z,10.00
2023-03-13T17:43:11.400Z,8.30
2023-03-13T17:44:14.877Z,9.80
2023-03-13T17:45:17.767Z,9.30
2023-03-13T17:46:31.990Z,9.00
2023-03-13T17:47:34.304Z,9.10
2023-03-13T17:48:38.219Z,8.80
2023-03-13T17:49:42.482Z,8.90
2023-03-13T17:50:46.445Z,7.70
2023-03-13T17:51:48.788Z,8.82
2023-03-13T17:52:51.939Z,8.50
2023-03-13T17:53:56.378Z,7.90
2023-03-13T17:54:58.999Z,9.00
2023-03-13T17:56:01.085Z,8.00
2023-03-13T17:57:07.429Z,7.50
2023-03-13T17:58:09.563Z,7.90
2023-03-13T17:59:18.382Z,6.90
2023-03-13T18:00:30.895Z,6.50
2023-03-13T18:01:36.388Z,6.30
2023-03-13T18:02:38.785Z,7.20
2023-03-13T18:03:44.007Z,6.90
2023-03-13T18:04:46.476Z,7.00
2023-03-13T18:05:48.659Z,7.30
2023-03-13T18:06:52.986Z,6.20
2023-03-13T18:07:58.649Z,8.30
2023-03-13T18:09:09.362Z,7.20
2023-03-13T18:10:18.676Z,6.80
2023-03-13T18:11:23.835Z,7.00
2023-03-13T18:12:29.154Z,8.10
2023-03-13T18:13:38.070Z,7.30
2023-03-13T18:14:43.410Z,7.10
2023-03-13T18:15:52.404Z,6.90
2023-03-13T18:17:01.679Z,7.40
2023-03-13T18:18:09.691Z,7.40
2023-03-13T18:19:23.951Z,6.70
2023-03-13T18:20:33.821Z,6.60
2023-03-13T18:21:40.684Z,6.40
2023-03-13T18:22:54.760Z,7.70
2023-03-13T18:23:58.739Z,7.00
2023-03-13T18:25:04.964Z,4.10
2023-03-13T18:26:25.962Z,2.40
2023-03-13T18:27:29.053Z,3.20
2023-03-13T18:28:33.993Z,7.40
2023-03-13T18:29:38.173Z,0.30
2023-03-13T18:30:46.036Z,7.10
2023-03-13T18:32:01.334Z,6.80
2023-03-13T18:33:03.663Z,7.40
2023-03-13T18:34:06.700Z,7.40
2023-03-13T18:35:11.731Z,7.20
2023-03-13T18:36:20.550Z,6.70
2023-03-13T18:37:30.767Z,6.70
2023-03-13T18:38:35.272Z,7.10
2023-03-13T18:39:39.172Z,7.50
2023-03-13T18:40:42.285Z,7.00
2023-03-13T18:41:50.153Z,7.50
2023-03-13T18:42:55.674Z,7.30
2023-03-13T18:44:05.638Z,8.40
2023-03-13T18:45:13.015Z,6.70
2023-03-13T18:46:36.187Z,7.30
2023-03-13T18:47:43.356Z,6.10
2023-03-13T18:48:48.283Z,5.90
2023-03-13T18:49:58.912Z,6.80
2023-03-13T18:51:06.592Z,6.20
2023-03-13T18:52:15.019Z,4.20
2023-03-13T18:53:26.093Z,5.70
2023-03-13T18:54:32.987Z,4.80
2023-03-13T18:55:38.188Z,6.90
2023-03-13T18:56:44.748Z,7.00
2023-03-13T18:57:55.868Z,6.20
2023-03-13T18:59:00.171Z,7.00
2023-03-13T19:00:05.486Z,6.70
2023-03-13T19:01:15.176Z,6.20
2023-03-13T19:02:22.775Z,7.40
2023-03-13T19:03:24.993Z,7.60
2023-03-13T19:04:30.834Z,8.00
2023-03-13T19:05:37.137Z,7.80
2023-03-13T19:06:50.886Z,8.00
2023-03-13T19:07:54.037Z,7.90
2023-03-13T19:09:00.072Z,6.70
2023-03-13T19:10:03.355Z,7.30
2023-03-13T19:11:06.681Z,8.30
2023-03-13T19:12:13.122Z,7.40
2023-03-13T19:13:23.175Z,7.50
2023-03-13T19:14:39.528Z,7.50
2023-03-13T19:15:45.508Z,7.10
2023-03-13T19:18:02.620Z,8.50
2023-03-13T19:19:17.984Z,7.00
2023-03-13T19:20:22.890Z,6.80
2023-03-13T19:22:13.633Z,9.10
2023-03-13T19:23:16.121Z,7.30
2023-03-13T19:24:18.793Z,8.40
2023-03-13T19:25:20.965Z,6.80
2023-03-13T19:26:47.180Z,7.50
2023-03-13T19:27:49.165Z,7.80
2023-03-13T19:28:52.345Z,8.00
2023-03-13T19:29:55.347Z,6.10
2023-03-13T19:32:21.274Z,8.90
2023-03-13T19:34:28.241Z,9.20
2023-03-13T19:35:32.449Z,7.90
2023-03-13T19:36:40.370Z,8.00
2023-03-13T19:37:42.587Z,8.70
2023-03-13T19:38:50.338Z,8.70
2023-03-13T19:41:11.969Z,9.60
2023-03-13T19:42:14.618Z,9.40
2023-03-13T19:43:21.956Z,8.40
2023-03-13T19:46:34.092Z,11.00
2023-03-13T19:47:36.124Z,9.82
2023-03-13T19:48:38.817Z,9.80
2023-03-13T19:49:41.023Z,10.40
2023-03-13T19:50:43.118Z,10.40
2023-03-13T19:51:48.214Z,8.50
2023-03-13T19:52:50.475Z,10.10
2023-03-13T19:54:26.362Z,10.60
2023-03-13T19:55:28.300Z,10.10
2023-03-13T19:56:32.095Z,8.89
2023-03-13T19:57:38.843Z,9.00
2023-03-13T19:58:41.080Z,9.50
2023-03-13T19:59:44.475Z,9.90
2023-03-13T20:00:46.607Z,10.30
2023-03-13T20:01:51.913Z,9.00
2023-03-13T20:02:57.192Z,10.30
2023-03-13T20:04:02.759Z,9.00
2023-03-13T20:05:08.047Z,9.60
2023-03-13T20:06:20.186Z,8.90
2023-03-13T20:07:23.521Z,9.30
2023-03-13T20:08:26.454Z,9.40
2023-03-13T20:09:30.176Z,8.00
2023-03-13T20:10:35.087Z,8.00
2023-03-13T20:11:37.525Z,8.00
2023-03-13T20:12:40.678Z,7.10
2023-03-13T20:13:43.966Z,8.50
2023-03-13T20:14:46.458Z,9.20
2023-03-13T20:15:48.611Z,8.80
2023-03-13T20:16:52.689Z,7.70
2023-03-13T20:17:59.270Z,8.00
2023-03-13T20:19:05.775Z,9.00
2023-03-13T20:20:15.798Z,8.70
2023-03-13T20:21:22.392Z,7.60
2023-03-13T20:22:25.885Z,7.50
2023-03-13T20:23:34.720Z,8.40
2023-03-13T20:24:49.311Z,6.80
2023-03-13T20:26:02.008Z,9.10
2023-03-13T20:27:06.125Z,8.20
2023-03-13T20:28:18.032Z,6.30
2023-03-13T20:29:23.212Z,8.00
2023-03-13T20:30:29.008Z,9.00
2023-03-13T20:31:33.581Z,8.10
2023-03-13T20:32:36.760Z,9.10
2023-03-13T20:33:40.556Z,7.50
2023-03-13T20:34:44.489Z,8.20
2023-03-13T20:35:46.774Z,8.20
2023-03-13T20:36:50.034Z,8.50
2023-03-13T20:37:55.520Z,8.10
2023-03-13T20:39:00.462Z,8.30
2023-03-13T20:41:18.693Z,8.30
2023-03-13T20:42:21.205Z,8.40
2023-03-13T20:43:27.160Z,5.20
2023-03-13T20:44:30.860Z,7.60
2023-03-13T20:45:36.333Z,7.80
2023-03-13T20:46:41.093Z,8.20
2023-03-13T20:47:47.446Z,7.30
2023-03-13T20:48:52.210Z,7.00
2023-03-13T20:49:56.019Z,7.50
2023-03-13T20:51:01.658Z,7.20
2023-03-13T20:52:06.447Z,7.00
2023-03-13T20:53:12.124Z,6.00
2023-03-13T20:54:22.401Z,8.00
2023-03-13T20:55:26.174Z,7.80
2023-03-13T20:57:39.311Z,8.30
2023-03-13T20:58:44.190Z,7.90
2023-03-13T20:59:50.338Z,7.70
2023-03-13T21:00:59.538Z,7.50
2023-03-13T21:02:01.699Z,7.10
2023-03-13T21:03:04.697Z,6.50
2023-03-13T21:04:19.970Z,7.20
2023-03-13T21:05:29.232Z,6.70
2023-03-13T21:06:39.440Z,1.70
2023-03-13T21:07:43.289Z,6.50
2023-03-13T21:08:47.974Z,7.30
2023-03-13T21:09:55.559Z,7.50
2023-03-13T21:10:57.701Z,7.40
2023-03-13T21:12:02.908Z,6.10
2023-03-13T21:13:05.618Z,7.00
2023-03-13T21:14:16.074Z,7.36
2023-03-13T21:16:36.862Z,5.90
2023-03-13T21:17:39.132Z,5.60
2023-03-13T21:18:44.654Z,4.50
2023-03-13T21:19:52.429Z,5.00
2023-03-13T21:20:56.184Z,6.00
2023-03-13T21:22:08.171Z,6.30
2023-03-13T21:23:11.967Z,5.50
2023-03-13T21:24:16.236Z,5.30
2023-03-13T21:25:24.160Z,6.80
2023-03-13T21:26:27.588Z,5.10
2023-03-13T21:27:30.607Z,5.50
2023-03-13T21:29:37.491Z,4.70
2023-03-13T21:30:42.614Z,5.70
2023-03-13T21:31:45.339Z,5.40
2023-03-13T21:32:47.786Z,6.09
2023-03-13T21:33:50.108Z,6.40
2023-03-13T21:34:53.276Z,4.90
2023-03-13T21:35:55.993Z,5.20
2023-03-13T21:36:58.523Z,5.30
2023-03-13T21:38:00.697Z,6.20
2023-03-13T21:39:03.448Z,6.30
2023-03-13T21:40:08.614Z,6.40
2023-03-13T21:41:13.227Z,6.00
2023-03-13T21:42:17.013Z,6.80
2023-03-13T21:43:20.199Z,6.00
2023-03-13T21:44:25.209Z,5.70
2023-03-13T21:45:27.570Z,5.00
2023-03-13T21:46:29.798Z,5.40
2023-03-13T21:47:33.193Z,5.80
2023-03-13T21:48:37.431Z,3.50
2023-03-13T21:49:39.789Z,5.40
2023-03-13T21:50:41.978Z,5.20
2023-03-13T21:51:44.145Z,4.20
2023-03-13T21:52:47.369Z,5.10
2023-03-13T21:53:49.592Z,5.20
2023-03-13T21:54:51.591Z,5.00
2023-03-13T21:55:53.573Z,5.11
2023-03-13T21:56:55.757Z,5.10
2023-03-13T21:57:58.767Z,5.00
2023-03-13T21:59:02.063Z,5.20
2023-03-13T22:00:07.527Z,5.00
2023-03-13T22:01:10.092Z,5.60
2023-03-13T22:02:13.315Z,3.00
2023-03-13T22:03:15.621Z,4.70
2023-03-13T22:04:19.960Z,5.00
2023-03-13T22:05:22.850Z,5.40
2023-03-13T22:06:25.603Z,5.18
2023-03-13T22:07:29.351Z,5.50
2023-03-13T22:08:32.177Z,5.60
2023-03-13T22:09:34.396Z,6.50
2023-03-13T22:10:37.169Z,5.30
2023-03-13T22:11:40.477Z,3.20
2023-03-13T22:12:42.604Z,4.10
2023-03-13T22:13:45.127Z,4.90
2023-03-13T22:14:48.258Z,4.70
2023-03-13T22:15:50.486Z,3.50
2023-03-13T22:16:53.236Z,4.10
2023-03-13T22:17:55.567Z,4.64
2023-03-13T22:18:57.757Z,4.70
2023-03-13T22:19:59.924Z,4.60
2023-03-13T22:21:02.531Z,4.60
2023-03-13T22:22:04.591Z,4.70
2023-03-13T22:23:06.975Z,4.90
2023-03-13T22:24:10.260Z,4.50
2023-03-13T22:25:12.707Z,5.00
2023-03-13T22:26:15.274Z,4.80
2023-03-13T22:27:20.297Z,4.10
2023-03-13T22:28:23.197Z,4.50
2023-03-13T22:29:26.532Z,4.10
2023-03-13T22:30:29.153Z,4.80
2023-03-13T22:31:31.453Z,5.10
2023-03-13T22:32:33.710Z,4.10
2023-03-13T22:33:37.483Z,2.50
2023-03-13T22:34:39.695Z,4.80
2023-03-13T22:35:44.084Z,4.50
2023-03-13T22:36:46.237Z,4.60
2023-03-13T22:37:48.214Z,4.50
2023-03-13T22:38:50.602Z,4.20
2023-03-13T22:39:53.492Z,4.20
2023-03-13T22:42:09.309Z,5.50
2023-03-13T22:43:11.254Z,3.90
2023-03-13T22:44:13.287Z,4.56
2023-03-13T22:45:15.474Z,4.70
2023-03-13T22:46:17.454Z,3.90
2023-03-13T22:47:19.844Z,3.56
2023-03-13T22:48:22.223Z,3.70
2023-03-13T22:49:25.218Z,3.60
2023-03-13T22:50:27.454Z,4.80
2023-03-13T22:51:30.226Z,4.40
2023-03-13T22:52:32.444Z,3.50
2023-03-13T22:53:36.752Z,3.60
2023-03-13T22:54:38.884Z,3.60
2023-03-13T22:55:42.270Z,4.40
2023-03-13T22:56:44.392Z,4.70
2023-03-13T22:57:46.538Z,3.80
2023-03-13T22:58:48.955Z,2.80
2023-03-13T22:59:50.886Z,4.40
2023-03-13T23:00:54.405Z,4.11
2023-03-13T23:01:56.654Z,4.20
2023-03-13T23:02:58.856Z,4.10
2023-03-13T23:04:01.982Z,3.80
2023-03-13T23:05:04.990Z,3.70
2023-03-13T23:06:09.784Z,3.60
2023-03-13T23:07:12.355Z,4.20
2023-03-13T23:08:16.503Z,2.50
2023-03-13T23:09:18.767Z,3.00
2023-03-13T23:10:21.035Z,4.40
2023-03-13T23:11:23.102Z,2.80
2023-03-13T23:12:26.397Z,2.80
2023-03-13T23:13:29.343Z,3.90
2023-03-13T23:14:32.436Z,3.90
2023-03-13T23:15:55.280Z,3.00
2023-03-13T23:16:45.677Z,3.00
2023-03-13T23:17:52.152Z,2.80
2023-03-13T23:18:54.621Z,4.30
2023-03-13T23:19:56.831Z,3.90
2023-03-13T23:21:09.556Z,4.40
2023-03-13T23:22:11.890Z,4.10
2023-03-13T23:23:17.042Z,4.00
2023-03-13T23:24:25.168Z,3.50
2023-03-13T23:25:27.452Z,4.10
2023-03-13T23:26:31.444Z,3.90
2023-03-13T23:27:35.593Z,4.30
2023-03-13T23:28:40.200Z,4.30
2023-03-13T23:29:43.522Z,3.80
2023-03-13T23:30:52.238Z,4.00
2023-03-13T23:31:57.668Z,3.60
2023-03-13T23:33:06.075Z,1.40
2023-03-13T23:34:10.273Z,2.60
2023-03-13T23:35:13.581Z,4.20
2023-03-13T23:36:19.569Z,4.10
2023-03-13T23:37:22.019Z,4.10
2023-03-13T23:38:24.452Z,4.60
2023-03-13T23:39:30.951Z,4.20
2023-03-13T23:40:35.950Z,3.30
2023-03-13T23:41:38.233Z,3.40
2023-03-13T23:42:44.919Z,4.30
2023-03-13T23:43:47.360Z,4.40
2023-03-13T23:44:52.139Z,4.40
2023-03-13T23:45:54.403Z,3.80
2023-03-13T23:46:56.913Z,3.80
2023-03-13T23:47:58.860Z,3.80
2023-03-13T23:49:00.871Z,4.11
2023-03-13T23:50:06.030Z,3.60
2023-03-13T23:51:11.835Z,3.60
2023-03-13T23:52:18.460Z,3.80
2023-03-13T23:53:23.050Z,3.10
2023-03-13T23:54:26.774Z,3.30
2023-03-13T23:55:29.499Z,3.30
2023-03-13T23:56:33.424Z,3.50
2023-03-13T23:57:43.807Z,2.70
2023-03-13T23:58:50.065Z,3.20
2023-03-13T23:59:54.292Z,3.30
